Airfield :
LOGIN :

Register | Disclaimer

   EN    FR    IT 

 










Legend :    VFR   Marginal VFR   IFR   Intensive IFR   Very Intensive IFR
Visi :
Ceiling :
>= 8 km
>= 3000ft
5 to 8 km
1000 to 3000 ft
1500m to 5 km
500 to 1000 ft
800 to 1500m
200 to 500 ft
< 800m
< 200 ft
Symbols :   Thunderstorms  Fog  Heavy snow  Heavy precipitations  Wind > 20 kt
SIGMETs :     Misc.  Thunderstorms  Icing  Turbulence  Mountain Waves  Volcanic Ashes






- Airport Elevation : 13 ft
- IATA code : CEQ


LFMD - Cannes Mandelieu

CURRENT METAR :
  • 021230Z AUTO 08005KT 020V140 9999 FEW036 OVC092 14/06 Q1015 NOSIG

EXPIRED METARs :
  • 021200Z AUTO 09006KT 010V140 9999 FEW031 BKN092 14/05 Q1015 NOSIG
  • 021130Z AUTO 06004KT 020V120 9999 ////// 14/05 Q1016
  • 021100Z AUTO 10004KT 030V150 CAVOK 14/05 Q1016 NOSIG
  • 021030Z AUTO 06004KT 020V110 CAVOK 14/04 Q1016 NOSIG
  • 021000Z AUTO VRB02KT CAVOK 13/05 Q1016 NOSIG

TAF TAF LFMD
Valid from the 02 at 09:00 until the 03 at 09:00 UTC


020800Z 0209/0309 36005KT CAVOK
BECMG 0212/0214 06012KT
TEMPO 0218/0304 36005KT
PROB40
TEMPO 0305/0309 36005KT 4000 RA BKN050
ATIS : +33 4 92 19 94 92



MET'MAP, your aeronautical weather chart ! - Copyright ORBIFLY December 2007 - Disclaimer

ORBIFLY MET'MAP TEAM :

Programming & Development : Alexandra Zaïnal
Original concept : Baudouin d'Aumeries
Technical & hardware support : Manuel Goepfert
Assistance : Marc-Olivier Méhu




SOURCES & CREDITS :

   NOAA